Time;durP1;ratioP1;P1;durP2;ratioP2;P2;SDS_P1;SDS_P2;PMS_P1;PMS_P2;Temp;Humidity;BMP_temperature;BMP_pressure;BME280_temperature;BME280_humidity;BME280_pressure;Samples;Min_cycle;Max_cycle;Signal;HPM_P1;HPM_P2
2023/06/07 00:01:05;;;;;;;4.85;3.63;;;;;;;;;;6369985;22;20018;-71
2023/06/07 00:03:33;;;;;;;6.88;3.72;;;;;;;;;;6342024;22;20025;-72
2023/06/07 00:06:01;;;;;;;6.55;3.95;;;;;;;;;;6370403;22;20340;-72
2023/06/07 00:08:30;;;;;;;7.10;3.70;;;;;;;;;;6370290;22;20335;-72
2023/06/07 00:10:58;;;;;;;6.47;4.00;;;;;;;;;;6369936;22;20014;-71
2023/06/07 00:13:26;;;;;;;6.32;3.50;;;;;;;;;;6369632;22;20018;-71
2023/06/07 00:15:53;;;;;;;6.35;3.60;;;;;;;;;;6370222;22;20015;-72
2023/06/07 00:18:21;;;;;;;8.45;4.13;;;;;;;;;;6370221;22;20015;-70
2023/06/07 00:20:49;;;;;;;7.78;4.32;;;;;;;;;;6369951;22;20014;-70
2023/06/07 00:23:18;;;;;;;7.72;3.90;;;;;;;;;;6316377;22;20019;-72
2023/06/07 00:25:46;;;;;;;9.27;4.13;;;;;;;;;;6343186;22;20022;-71
2023/06/07 00:28:13;;;;;;;9.32;3.97;;;;;;;;;;6342742;22;20448;-71
2023/06/07 00:30:41;;;;;;;8.43;4.18;;;;;;;;;;6369969;22;20018;-70
2023/06/07 00:33:08;;;;;;;6.72;4.32;;;;;;;;;;6341928;22;20014;-71
2023/06/07 00:35:36;;;;;;;5.32;4.28;;;;;;;;;;6369918;22;20018;-70
2023/06/07 00:38:08;;;;;;;7.60;4.50;;;;;;;;;;6342466;22;20014;-69
2023/06/07 00:40:36;;;;;;;11.00;4.70;;;;;;;;;;6341880;22;20022;-72
2023/06/07 00:43:08;;;;;;;7.50;4.55;;;;;;;;;;6343638;22;20110;-70
2023/06/07 00:45:36;;;;;;;6.35;4.13;;;;;;;;;;6342058;22;20505;-72
2023/06/07 00:48:04;;;;;;;7.50;4.32;;;;;;;;;;6341900;22;20018;-72
2023/06/07 00:50:32;;;;;;;7.72;4.80;;;;;;;;;;6341802;22;20052;-71
2023/06/07 00:53:00;;;;;;;7.95;4.55;;;;;;;;;;6316033;22;20063;-71
2023/06/07 00:55:27;;;;;;;11.88;5.03;;;;;;;;;;6342186;22;20026;-71
2023/06/07 00:57:55;;;;;;;8.60;4.57;;;;;;;;;;6342412;22;20045;-71
2023/06/07 01:00:23;;;;;;;7.28;4.85;;;;;;;;;;6342242;22;20010;-72
2023/06/07 01:02:51;;;;;;;9.00;5.10;;;;;;;;;;6315997;22;20125;-72
2023/06/07 01:05:20;;;;;;;7.75;4.75;;;;;;;;;;6369638;22;20026;-72
2023/06/07 01:07:54;;;;;;;8.70;4.93;;;;;;;;;;6341659;22;20024;-72
2023/06/07 01:10:22;;;;;;;6.07;4.55;;;;;;;;;;6341953;22;20049;-71
2023/06/07 01:12:53;;;;;;;10.65;5.20;;;;;;;;;;6342085;22;20102;-72
2023/06/07 01:15:22;;;;;;;8.88;5.00;;;;;;;;;;6369622;22;20141;-70
2023/06/07 01:17:51;;;;;;;8.77;5.00;;;;;;;;;;6341563;22;20064;-70
2023/06/07 01:20:20;;;;;;;7.03;5.00;;;;;;;;;;6341686;22;20357;-71
2023/06/07 01:22:49;;;;;;;7.00;4.60;;;;;;;;;;6341368;22;20026;-70
2023/06/07 01:25:16;;;;;;;8.30;5.07;;;;;;;;;;6371656;22;20049;-70
2023/06/07 01:27:45;;;;;;;7.90;5.07;;;;;;;;;;6343651;22;20064;-70
2023/06/07 01:30:13;;;;;;;7.40;5.13;;;;;;;;;;6343652;22;20014;-71
2023/06/07 01:32:42;;;;;;;10.43;5.60;;;;;;;;;;6371685;22;20014;-71
2023/06/07 01:35:10;;;;;;;9.50;5.55;;;;;;;;;;6343976;22;20093;-71
2023/06/07 01:37:38;;;;;;;8.18;5.35;;;;;;;;;;6343686;22;20041;-70
2023/06/07 01:40:06;;;;;;;7.57;5.32;;;;;;;;;;6371392;22;20018;-71
2023/06/07 01:42:35;;;;;;;8.43;5.55;;;;;;;;;;6343701;22;20053;-71
2023/06/07 01:45:03;;;;;;;8.85;5.35;;;;;;;;;;6371552;22;20021;-71
2023/06/07 01:47:31;;;;;;;9.00;5.57;;;;;;;;;;6371295;22;20018;-71
2023/06/07 01:49:59;;;;;;;8.32;5.68;;;;;;;;;;6343512;22;20070;-71
2023/06/07 01:52:27;;;;;;;10.75;6.05;;;;;;;;;;6371264;22;20018;-70
2023/06/07 01:54:56;;;;;;;8.85;5.85;;;;;;;;;;6343392;22;20505;-70
2023/06/07 01:57:46;;;;;;;7.55;5.50;;;;;;;;;;6317547;22;20026;-70
2023/06/07 02:00:21;;;;;;;12.88;6.00;;;;;;;;;;6343028;22;20045;-71
2023/06/07 02:03:00;;;;;;;8.57;6.07;;;;;;;;;;6343099;22;20094;-70
2023/06/07 02:05:32;;;;;;;10.85;6.03;;;;;;;;;;6371368;22;20063;-70
2023/06/07 02:08:03;;;;;;;11.05;6.07;;;;;;;;;;6371260;22;20436;-70
2023/06/07 02:10:35;;;;;;;11.30;6.28;;;;;;;;;;6343324;22;20024;-70
2023/06/07 02:13:06;;;;;;;11.18;6.28;;;;;;;;;;6343187;22;20038;-70
2023/06/07 02:15:34;;;;;;;10.68;6.75;;;;;;;;;;6343216;22;20097;-70
2023/06/07 02:18:02;;;;;;;10.43;6.72;;;;;;;;;;6371053;22;20436;-70
2023/06/07 02:20:33;;;;;;;8.20;6.30;;;;;;;;;;6342982;22;20127;-70
2023/06/07 02:23:01;;;;;;;11.18;6.68;;;;;;;;;;6343257;22;20018;-70
2023/06/07 02:25:28;;;;;;;10.68;6.25;;;;;;;;;;6343159;22;20026;-69
2023/06/07 02:27:56;;;;;;;10.80;6.35;;;;;;;;;;6343249;22;20444;-69
2023/06/07 02:30:23;;;;;;;7.68;5.80;;;;;;;;;;6317225;22;20018;-69
2023/06/07 02:32:53;;;;;;;9.95;6.47;;;;;;;;;;6343478;22;20038;-69
2023/06/07 02:35:22;;;;;;;11.23;6.82;;;;;;;;;;6342599;22;20042;-69
2023/06/07 02:37:50;;;;;;;13.05;6.50;;;;;;;;;;6343050;22;20063;-70
2023/06/07 02:40:18;;;;;;;8.82;6.75;;;;;;;;;;6342638;22;20014;-70
2023/06/07 02:42:45;;;;;;;12.52;6.75;;;;;;;;;;6343046;22;20054;-69
2023/06/07 02:45:14;;;;;;;11.13;6.57;;;;;;;;;;6342842;22;20018;-69
2023/06/07 02:47:42;;;;;;;10.15;6.25;;;;;;;;;;6342940;22;20022;-68
2023/06/07 02:50:10;;;;;;;8.73;5.93;;;;;;;;;;6342892;22;20442;-70
2023/06/07 02:52:38;;;;;;;8.80;6.25;;;;;;;;;;6342811;22;20343;-69
2023/06/07 02:55:08;;;;;;;11.07;6.63;;;;;;;;;;6342515;22;20043;-69
2023/06/07 02:57:36;;;;;;;11.02;6.43;;;;;;;;;;6343026;22;20022;-67
2023/06/07 03:00:11;;;;;;;11.30;6.47;;;;;;;;;;6342725;22;20019;-67
2023/06/07 03:02:50;;;;;;;8.75;6.25;;;;;;;;;;6342434;22;20026;-68
2023/06/07 03:05:18;;;;;;;10.10;6.10;;;;;;;;;;6342707;22;20045;-68
2023/06/07 03:07:50;;;;;;;13.48;6.05;;;;;;;;;;6342277;22;20041;-67
2023/06/07 03:10:19;;;;;;;14.43;6.88;;;;;;;;;;6342765;22;20022;-68
2023/06/07 03:12:47;;;;;;;14.95;6.88;;;;;;;;;;6342548;22;20018;-68
2023/06/07 03:15:15;;;;;;;11.10;6.72;;;;;;;;;;6342666;22;20075;-68
2023/06/07 03:17:45;;;;;;;12.75;6.30;;;;;;;;;;6342585;22;20022;-68
2023/06/07 03:20:13;;;;;;;12.68;6.55;;;;;;;;;;6342680;22;20075;-71
2023/06/07 03:22:44;;;;;;;13.05;6.65;;;;;;;;;;6342598;22;20022;-71
2023/06/07 03:25:14;;;;;;;9.23;6.10;;;;;;;;;;6342547;22;20015;-71
2023/06/07 03:27:45;;;;;;;10.70;6.00;;;;;;;;;;6342576;22;20018;-70
2023/06/07 03:30:35;;;;;;;8.95;5.95;;;;;;;;;;6369706;22;20018;-71
2023/06/07 03:33:03;;;;;;;9.48;6.50;;;;;;;;;;6340721;22;20025;-71
2023/06/07 03:35:33;;;;;;;11.75;6.78;;;;;;;;;;6341893;22;20452;-70
2023/06/07 03:38:03;;;;;;;10.27;6.40;;;;;;;;;;6341320;22;20059;-71
2023/06/07 03:40:31;;;;;;;13.95;6.20;;;;;;;;;;6342263;22;20352;-70
2023/06/07 03:43:01;;;;;;;10.27;6.22;;;;;;;;;;6342220;22;20026;-70
2023/06/07 03:45:29;;;;;;;13.65;6.65;;;;;;;;;;6342550;22;20037;-70
2023/06/07 03:48:07;;;;;;;14.05;6.32;;;;;;;;;;6318688;22;20018;-71
2023/06/07 03:50:35;;;;;;;9.27;6.20;;;;;;;;;;6370021;22;20093;-70
2023/06/07 03:53:02;;;;;;;10.23;6.07;;;;;;;;;;6342371;22;20025;-71
2023/06/07 03:55:33;;;;;;;11.18;6.35;;;;;;;;;;6342392;22;20014;-70
2023/06/07 03:58:00;;;;;;;10.25;5.60;;;;;;;;;;6342375;22;20018;-71
2023/06/07 04:00:30;;;;;;;10.48;5.95;;;;;;;;;;6342145;22;20106;-71
2023/06/07 04:02:59;;;;;;;8.93;5.82;;;;;;;;;;6342081;22;20109;-71
2023/06/07 04:05:28;;;;;;;8.88;6.03;;;;;;;;;;6342229;22;20018;-72
2023/06/07 04:07:59;;;;;;;11.57;5.95;;;;;;;;;;6342192;22;20023;-68
2023/06/07 04:10:28;;;;;;;8.63;5.88;;;;;;;;;;6342316;22;20068;-69
2023/06/07 04:12:55;;;;;;;10.02;6.07;;;;;;;;;;6342265;22;20019;-69
2023/06/07 04:15:24;;;;;;;11.25;5.70;;;;;;;;;;6342111;22;20037;-69
2023/06/07 04:17:51;;;;;;;10.38;6.75;;;;;;;;;;6342487;22;20505;-69
2023/06/07 04:20:20;;;;;;;8.35;5.75;;;;;;;;;;6342137;22;20023;-69
2023/06/07 04:22:52;;;;;;;9.07;5.68;;;;;;;;;;6342066;22;20022;-69
2023/06/07 04:25:24;;;;;;;9.38;6.28;;;;;;;;;;6316527;22;20049;-69
2023/06/07 04:27:59;;;;;;;10.45;6.70;;;;;;;;;;6342070;22;20599;-69
2023/06/07 04:30:34;;;;;;;11.23;6.10;;;;;;;;;;6342496;22;20436;-68
2023/06/07 04:33:08;;;;;;;11.35;6.75;;;;;;;;;;6341860;22;20106;-68
2023/06/07 04:35:43;;;;;;;11.40;6.80;;;;;;;;;;6316995;22;20038;-68
2023/06/07 04:38:21;;;;;;;13.03;7.17;;;;;;;;;;6341950;22;20079;-69
2023/06/07 04:40:53;;;;;;;8.82;6.18;;;;;;;;;;6342061;22;20018;-69
2023/06/07 04:43:36;;;;;;;8.80;5.68;;;;;;;;;;6342128;22;20022;-69
2023/06/07 04:46:06;;;;;;;10.43;6.13;;;;;;;;;;6342018;22;20014;-73
2023/06/07 04:48:40;;;;;;;10.13;5.75;;;;;;;;;;6341940;22;20118;-76
2023/06/07 04:51:09;;;;;;;11.77;6.20;;;;;;;;;;6341466;22;20348;-74
2023/06/07 04:53:42;;;;;;;9.48;6.03;;;;;;;;;;6341076;22;20102;-79
2023/06/07 04:56:13;;;;;;;8.50;5.53;;;;;;;;;;6342143;22;20022;-75
2023/06/07 04:58:42;;;;;;;9.02;5.57;;;;;;;;;;6341699;22;20037;-77
2023/06/07 05:01:15;;;;;;;12.82;6.10;;;;;;;;;;6341730;22;20068;-75
2023/06/07 05:03:43;;;;;;;9.13;5.43;;;;;;;;;;6342255;22;20105;-78
2023/06/07 05:06:17;;;;;;;8.50;5.85;;;;;;;;;;6343443;22;20072;-78
2023/06/07 05:08:48;;;;;;;10.68;5.95;;;;;;;;;;6318545;22;20076;-78
2023/06/07 05:11:15;;;;;;;9.65;5.68;;;;;;;;;;6370837;22;20336;-77
2023/06/07 05:13:43;;;;;;;10.38;5.72;;;;;;;;;;6343354;22;20432;-77
2023/06/07 05:16:16;;;;;;;11.20;6.03;;;;;;;;;;6344167;22;20021;-78
2023/06/07 05:18:49;;;;;;;10.00;5.55;;;;;;;;;;6345027;22;20018;-78
2023/06/07 05:21:20;;;;;;;9.38;6.28;;;;;;;;;;6344288;22;20110;-75
2023/06/07 05:23:48;;;;;;;7.55;5.60;;;;;;;;;;6343737;22;20018;-76
2023/06/07 05:26:16;;;;;;;10.00;6.25;;;;;;;;;;6344556;22;20328;-77
2023/06/07 05:28:44;;;;;;;9.65;5.90;;;;;;;;;;6343137;22;20018;-77
2023/06/07 05:31:12;;;;;;;8.20;5.40;;;;;;;;;;6342793;22;20057;-76
2023/06/07 05:33:40;;;;;;;9.00;4.93;;;;;;;;;;6343233;22;20028;-77
2023/06/07 05:36:10;;;;;;;10.85;4.95;;;;;;;;;;6370267;22;20025;-78
2023/06/07 05:38:39;;;;;;;7.40;4.70;;;;;;;;;;6342414;22;20100;-78
2023/06/07 05:41:07;;;;;;;6.57;4.75;;;;;;;;;;6343175;22;20014;-77
2023/06/07 05:43:36;;;;;;;9.38;5.45;;;;;;;;;;6342782;22;20507;-77
2023/06/07 05:46:03;;;;;;;8.05;4.60;;;;;;;;;;6343466;22;20019;-77
2023/06/07 05:48:31;;;;;;;7.80;4.57;;;;;;;;;;6342973;22;20022;-77
2023/06/07 05:50:59;;;;;;;8.60;4.63;;;;;;;;;;6343657;22;20060;-78
2023/06/07 05:53:27;;;;;;;8.35;4.65;;;;;;;;;;6371192;22;20557;-78
2023/06/07 05:55:55;;;;;;;7.00;4.78;;;;;;;;;;6346215;22;20052;-76
2023/06/07 05:58:23;;;;;;;8.95;4.20;;;;;;;;;;6345365;22;20018;-74
2023/06/07 06:00:53;;;;;;;6.43;4.20;;;;;;;;;;6372838;22;20014;-77
2023/06/07 06:03:21;;;;;;;7.25;4.43;;;;;;;;;;6372475;22;20042;-78
2023/06/07 06:05:49;;;;;;;6.47;4.70;;;;;;;;;;6372236;22;20098;-78
2023/06/07 06:08:16;;;;;;;9.32;4.30;;;;;;;;;;6344494;22;20022;-76
2023/06/07 06:10:44;;;;;;;6.57;4.22;;;;;;;;;;6375485;22;20011;-78
2023/06/07 06:13:12;;;;;;;7.53;4.30;;;;;;;;;;6350222;22;20063;-79
2023/06/07 06:15:40;;;;;;;6.90;4.20;;;;;;;;;;6376088;22;20006;-77
2023/06/07 06:18:08;;;;;;;8.32;4.05;;;;;;;;;;6376644;22;20428;-78
2023/06/07 06:20:36;;;;;;;6.97;3.92;;;;;;;;;;6376677;22;20041;-77
2023/06/07 06:23:07;;;;;;;5.85;4.00;;;;;;;;;;6374099;22;20030;-77
2023/06/07 06:25:36;;;;;;;7.68;4.18;;;;;;;;;;6377334;22;20038;-79
2023/06/07 06:28:04;;;;;;;7.45;3.92;;;;;;;;;;6347008;22;20332;-78
2023/06/07 06:30:32;;;;;;;9.07;3.95;;;;;;;;;;6375112;22;20010;-78
2023/06/07 06:33:00;;;;;;;8.55;4.78;;;;;;;;;;6374191;22;20018;-76
2023/06/07 06:35:32;;;;;;;7.97;4.00;;;;;;;;;;6378150;22;20093;-77
2023/06/07 06:38:00;;;;;;;7.70;4.25;;;;;;;;;;6380656;22;20021;-77
2023/06/07 06:40:28;;;;;;;6.80;4.25;;;;;;;;;;6376621;22;20097;-77
2023/06/07 06:42:56;;;;;;;11.52;4.20;;;;;;;;;;6379332;22;20046;-78
2023/06/07 06:45:33;;;;;;;5.22;3.70;;;;;;;;;;6347841;22;20011;-79
2023/06/07 06:48:01;;;;;;;6.32;3.85;;;;;;;;;;6379320;22;20025;-78
2023/06/07 06:50:29;;;;;;;9.75;4.57;;;;;;;;;;6377727;22;20036;-75
2023/06/07 06:53:00;;;;;;;7.72;3.67;;;;;;;;;;6375290;22;20079;-79
2023/06/07 06:55:29;;;;;;;6.78;3.83;;;;;;;;;;6374286;22;20093;-77
2023/06/07 06:57:56;;;;;;;8.70;3.78;;;;;;;;;;6373639;22;20022;-78
2023/06/07 07:00:31;;;;;;;6.38;3.60;;;;;;;;;;6373145;22;20018;-78
2023/06/07 07:02:59;;;;;;;10.57;3.95;;;;;;;;;;6373270;22;20071;-79
2023/06/07 07:05:27;;;;;;;6.63;4.18;;;;;;;;;;6373038;22;20020;-77
2023/06/07 07:07:57;;;;;;;7.47;3.97;;;;;;;;;;6378445;22;20391;-78
2023/06/07 07:10:25;;;;;;;10.25;3.70;;;;;;;;;;6378838;22;20036;-78
2023/06/07 07:12:52;;;;;;;6.68;3.60;;;;;;;;;;6377634;22;20041;-78
2023/06/07 07:15:22;;;;;;;6.22;3.53;;;;;;;;;;6383664;22;20015;-77
2023/06/07 07:17:49;;;;;;;5.28;3.50;;;;;;;;;;6379567;22;20022;-77
2023/06/07 07:20:18;;;;;;;8.63;3.75;;;;;;;;;;6380218;22;20063;-77
2023/06/07 07:22:46;;;;;;;9.57;3.95;;;;;;;;;;6380958;22;20026;-79
2023/06/07 07:25:15;;;;;;;7.72;3.78;;;;;;;;;;6380982;22;20010;-78
2023/06/07 07:27:43;;;;;;;5.57;3.55;;;;;;;;;;6377489;22;20022;-78
2023/06/07 07:30:11;;;;;;;7.25;4.07;;;;;;;;;;6348676;22;20515;-77
2023/06/07 07:32:39;;;;;;;7.60;3.92;;;;;;;;;;6374655;22;20437;-77
2023/06/07 07:35:06;;;;;;;9.68;3.78;;;;;;;;;;6375014;22;20068;-78
2023/06/07 07:37:35;;;;;;;7.22;3.90;;;;;;;;;;6348534;22;20010;-76
2023/06/07 07:40:05;;;;;;;6.88;3.55;;;;;;;;;;6373382;22;20041;-79
2023/06/07 07:42:33;;;;;;;8.95;3.60;;;;;;;;;;6348426;22;20014;-77
2023/06/07 07:45:01;;;;;;;9.30;3.83;;;;;;;;;;6348065;22;20036;-78
2023/06/07 07:47:29;;;;;;;7.13;3.83;;;;;;;;;;6347726;22;20022;-77
2023/06/07 07:49:57;;;;;;;6.55;3.80;;;;;;;;;;6351342;22;20014;-77
2023/06/07 07:52:25;;;;;;;10.35;3.90;;;;;;;;;;6375870;22;20083;-77
2023/06/07 07:54:54;;;;;;;7.95;4.22;;;;;;;;;;6374395;22;20021;-77
2023/06/07 07:57:22;;;;;;;7.60;4.30;;;;;;;;;;6375560;22;20014;-75
2023/06/07 07:59:49;;;;;;;6.85;3.80;;;;;;;;;;6374325;22;20563;-78
2023/06/07 08:02:17;;;;;;;9.30;4.38;;;;;;;;;;6347778;22;20074;-78
2023/06/07 08:04:45;;;;;;;8.73;4.18;;;;;;;;;;6374205;22;20041;-78
2023/06/07 08:07:16;;;;;;;6.05;3.72;;;;;;;;;;6374631;22;20064;-79
2023/06/07 08:09:43;;;;;;;7.13;4.63;;;;;;;;;;6351551;22;20393;-80
2023/06/07 08:12:11;;;;;;;5.13;3.33;;;;;;;;;;6378401;22;20410;-80
2023/06/07 08:14:39;;;;;;;7.47;3.45;;;;;;;;;;6353383;22;20014;-76
2023/06/07 08:17:07;;;;;;;6.55;3.80;;;;;;;;;;6327202;22;20018;-80
2023/06/07 08:19:34;;;;;;;8.07;3.78;;;;;;;;;;6378660;22;20410;-79
2023/06/07 08:22:02;;;;;;;6.75;3.20;;;;;;;;;;6381599;22;20016;-78
2023/06/07 08:24:29;;;;;;;6.93;3.65;;;;;;;;;;6378447;22;20014;-78
2023/06/07 08:26:57;;;;;;;8.30;3.13;;;;;;;;;;6381409;22;20021;-79
2023/06/07 08:29:25;;;;;;;11.20;3.10;;;;;;;;;;6381582;22;20028;-78
2023/06/07 08:31:54;;;;;;;10.85;4.13;;;;;;;;;;6379986;22;20075;-81
2023/06/07 08:34:27;;;;;;;6.70;3.60;;;;;;;;;;6381784;22;20074;-79
2023/06/07 08:36:58;;;;;;;17.58;9.60;;;;;;;;;;6380806;22;20340;-80
2023/06/07 08:39:25;;;;;;;12.32;5.55;;;;;;;;;;6382064;22;20041;-80
2023/06/07 08:41:53;;;;;;;13.25;8.00;;;;;;;;;;6355106;22;20025;-79
2023/06/07 08:44:21;;;;;;;8.80;4.32;;;;;;;;;;6380158;22;20019;-78
2023/06/07 08:46:49;;;;;;;4.53;3.10;;;;;;;;;;6381902;22;20015;-81
2023/06/07 08:49:16;;;;;;;5.10;3.20;;;;;;;;;;6327779;22;20081;-79
2023/06/07 08:51:46;;;;;;;7.38;3.58;;;;;;;;;;6381060;22;20078;-80
2023/06/07 08:54:16;;;;;;;5.40;3.45;;;;;;;;;;6381524;22;20054;-81
2023/06/07 08:56:44;;;;;;;7.80;4.63;;;;;;;;;;6381993;22;20062;-79
2023/06/07 08:59:12;;;;;;;5.68;3.00;;;;;;;;;;6355497;22;20082;-78
2023/06/07 09:01:42;;;;;;;5.97;3.10;;;;;;;;;;6349692;22;20017;-76
2023/06/07 09:04:12;;;;;;;6.20;2.70;;;;;;;;;;6352191;22;20483;-82
2023/06/07 09:06:40;;;;;;;5.25;3.13;;;;;;;;;;6350697;22;20010;-78
2023/06/07 09:09:07;;;;;;;8.30;3.55;;;;;;;;;;6377858;22;20042;-81
2023/06/07 09:11:35;;;;;;;6.88;4.15;;;;;;;;;;6379230;22;20045;-78
2023/06/07 09:14:03;;;;;;;7.10;3.75;;;;;;;;;;6301493;22;20014;-80
2023/06/07 09:16:30;;;;;;;4.32;3.20;;;;;;;;;;6381419;22;20025;-78
2023/06/07 09:18:58;;;;;;;6.03;3.40;;;;;;;;;;6352751;22;20014;-81
2023/06/07 09:21:27;;;;;;;6.07;2.92;;;;;;;;;;6352604;22;20013;-79
2023/06/07 09:23:58;;;;;;;4.32;3.08;;;;;;;;;;6379692;22;20014;-81
2023/06/07 09:26:40;;;;;;;6.18;3.50;;;;;;;;;;6324349;22;20011;-78
2023/06/07 09:29:09;;;;;;;6.43;2.88;;;;;;;;;;6376053;22;20348;-78
2023/06/07 09:31:37;;;;;;;3.92;2.70;;;;;;;;;;6324888;22;20018;-79
2023/06/07 09:34:25;;;;;;;7.07;4.70;;;;;;;;;;6376593;22;20016;-80
2023/06/07 09:36:57;;;;;;;7.10;4.50;;;;;;;;;;6348920;22;20018;-80
2023/06/07 09:39:29;;;;;;;3.65;2.80;;;;;;;;;;6375864;22;20085;-78
2023/06/07 09:41:58;;;;;;;8.00;4.93;;;;;;;;;;6377334;22;20026;-79
2023/06/07 09:44:29;;;;;;;4.82;3.30;;;;;;;;;;6375933;22;20071;-78
2023/06/07 09:46:59;;;;;;;5.55;3.20;;;;;;;;;;6354012;22;20078;-80
2023/06/07 09:49:33;;;;;;;6.68;2.97;;;;;;;;;;6350532;22;20017;-78
2023/06/07 09:52:12;;;;;;;7.72;3.35;;;;;;;;;;6381069;22;20085;-79
2023/06/07 09:54:43;;;;;;;5.18;2.85;;;;;;;;;;6381282;22;20014;-80
2023/06/07 09:57:12;;;;;;;10.05;4.00;;;;;;;;;;6382902;22;20011;-79
2023/06/07 09:59:55;;;;;;;5.20;2.90;;;;;;;;;;6352724;22;20018;-79
2023/06/07 10:02:26;;;;;;;8.52;3.58;;;;;;;;;;6353389;22;20018;-78
2023/06/07 10:04:56;;;;;;;8.75;3.40;;;;;;;;;;6354579;22;20045;-80
2023/06/07 10:07:32;;;;;;;7.10;4.35;;;;;;;;;;6378932;22;20015;-80
2023/06/07 10:10:00;;;;;;;8.10;4.25;;;;;;;;;;6354074;22;20014;-79
2023/06/07 10:12:29;;;;;;;7.28;4.32;;;;;;;;;;6378788;22;20018;-80
2023/06/07 10:15:00;;;;;;;5.10;2.90;;;;;;;;;;6353888;22;20063;-81
2023/06/07 10:17:31;;;;;;;5.10;3.00;;;;;;;;;;6355247;22;20034;-78
2023/06/07 10:20:00;;;;;;;7.68;3.25;;;;;;;;;;6382381;22;20417;-79
2023/06/07 10:22:30;;;;;;;5.85;2.85;;;;;;;;;;6383098;22;20501;-78
2023/06/07 10:25:24;;;;;;;7.20;2.95;;;;;;;;;;6380643;22;20014;-80
2023/06/07 10:28:09;;;;;;;19.50;14.82;;;;;;;;;;6375441;22;20018;-81
2023/06/07 10:30:38;;;;;;;6.20;3.35;;;;;;;;;;6352722;22;20018;-76
2023/06/07 10:33:06;;;;;;;5.53;2.80;;;;;;;;;;6380947;22;20015;-79
2023/06/07 10:35:34;;;;;;;4.25;2.60;;;;;;;;;;6380546;22;20014;-78
2023/06/07 10:38:01;;;;;;;5.70;2.90;;;;;;;;;;6355571;22;20040;-79
2023/06/07 10:40:31;;;;;;;5.93;2.75;;;;;;;;;;6381478;22;20033;-78
2023/06/07 10:43:00;;;;;;;5.10;3.20;;;;;;;;;;6327745;22;20317;-81
2023/06/07 10:45:27;;;;;;;6.30;3.30;;;;;;;;;;6351891;22;20022;-78
2023/06/07 10:47:55;;;;;;;9.10;4.57;;;;;;;;;;6380308;22;20020;-78
2023/06/07 10:50:32;;;;;;;7.38;3.33;;;;;;;;;;6380538;22;20091;-76
2023/06/07 10:53:02;;;;;;;4.38;2.72;;;;;;;;;;6379419;22;20063;-79
2023/06/07 10:55:31;;;;;;;4.43;2.60;;;;;;;;;;6352843;22;20048;-77
2023/06/07 10:58:00;;;;;;;6.90;2.88;;;;;;;;;;6378975;22;20018;-79
2023/06/07 11:00:33;;;;;;;4.82;2.90;;;;;;;;;;6380010;22;20030;-80
2023/06/07 11:03:16;;;;;;;3.00;2.23;;;;;;;;;;6380007;22;20017;-80
2023/06/07 11:05:53;;;;;;;6.03;2.50;;;;;;;;;;6352786;22;20015;-80
2023/06/07 11:08:28;;;;;;;5.38;2.70;;;;;;;;;;6379351;22;20016;-78
2023/06/07 11:11:01;;;;;;;5.55;3.25;;;;;;;;;;6356268;22;20014;-79
2023/06/07 11:13:44;;;;;;;5.35;3.35;;;;;;;;;;6380065;22;20063;-80
2023/06/07 11:16:24;;;;;;;6.72;3.50;;;;;;;;;;6352103;22;20043;-80
2023/06/07 11:18:53;;;;;;;6.57;3.35;;;;;;;;;;6379752;22;20017;-79
2023/06/07 11:21:21;;;;;;;8.77;4.07;;;;;;;;;;6380477;22;20088;-77
2023/06/07 11:24:08;;;;;;;6.95;2.65;;;;;;;;;;6378838;22;20071;-79
2023/06/07 11:26:36;;;;;;;6.38;2.92;;;;;;;;;;6379907;22;20019;-79
2023/06/07 11:29:05;;;;;;;3.42;2.50;;;;;;;;;;6377834;22;20303;-80
2023/06/07 11:31:33;;;;;;;4.57;2.80;;;;;;;;;;6381314;22;20037;-79
2023/06/07 11:34:01;;;;;;;3.78;2.60;;;;;;;;;;6382670;22;20010;-80
2023/06/07 11:36:32;;;;;;;5.85;3.10;;;;;;;;;;6381724;22;20014;-80
2023/06/07 11:39:05;;;;;;;8.10;3.00;;;;;;;;;;6380006;22;19998;-79
2023/06/07 11:41:33;;;;;;;4.65;2.60;;;;;;;;;;6381707;22;20044;-79
2023/06/07 11:44:03;;;;;;;4.60;2.50;;;;;;;;;;6355724;22;20014;-80
2023/06/07 11:46:37;;;;;;;7.55;2.60;;;;;;;;;;6327509;22;20754;-78
2023/06/07 11:49:05;;;;;;;;;;;;;;;;;;6383953;22;20447;-80
2023/06/07 11:51:33;;;;;;;4.13;2.30;;;;;;;;;;6354225;22;19960;-77
2023/06/07 11:54:01;;;;;;;5.90;2.38;;;;;;;;;;6381399;22;20037;-79
2023/06/07 11:56:30;;;;;;;6.40;2.42;;;;;;;;;;6354461;22;20050;-77
2023/06/07 11:58:58;;;;;;;6.07;2.75;;;;;;;;;;6350849;22;20014;-80
2023/06/07 12:01:27;;;;;;;6.78;2.80;;;;;;;;;;6380986;22;20018;-77
2023/06/07 12:03:55;;;;;;;5.22;2.47;;;;;;;;;;6354023;22;20344;-79
2023/06/07 12:06:27;;;;;;;4.60;2.40;;;;;;;;;;6377371;22;20014;-79
2023/06/07 12:08:55;;;;;;;4.97;2.40;;;;;;;;;;6349668;22;20063;-79
2023/06/07 12:11:23;;;;;;;5.47;2.72;;;;;;;;;;6379761;22;20019;-78
2023/06/07 12:13:59;;;;;;;10.73;3.88;;;;;;;;;;6348955;22;20063;-80
2023/06/07 12:16:28;;;;;;;4.63;2.80;;;;;;;;;;6380271;22;20018;-78
2023/06/07 12:18:56;;;;;;;4.45;2.50;;;;;;;;;;6377300;22;20018;-79
2023/06/07 12:21:24;;;;;;;5.25;2.58;;;;;;;;;;6327983;22;20018;-78
2023/06/07 12:23:55;;;;;;;4.40;2.30;;;;;;;;;;6378864;22;20407;-81
2023/06/07 12:26:27;;;;;;;6.85;2.78;;;;;;;;;;6381115;22;20525;-78
2023/06/07 12:29:01;;;;;;;5.82;2.65;;;;;;;;;;6354506;22;20312;-81
2023/06/07 12:31:30;;;;;;;10.25;7.30;;;;;;;;;;6379588;22;20010;-80
2023/06/07 12:33:58;;;;;;;7.18;3.42;;;;;;;;;;6354736;22;20037;-79
2023/06/07 12:36:29;;;;;;;6.40;2.67;;;;;;;;;;6352095;22;20018;-77
2023/06/07 12:39:01;;;;;;;21.63;12.30;;;;;;;;;;6351527;22;20014;-80
2023/06/07 12:41:28;;;;;;;8.65;4.60;;;;;;;;;;6378658;22;20044;-79
2023/06/07 12:43:58;;;;;;;12.52;7.50;;;;;;;;;;6378752;22;20018;-79
2023/06/07 12:46:26;;;;;;;8.00;4.60;;;;;;;;;;6375911;22;20038;-77
2023/06/07 12:48:54;;;;;;;5.30;3.17;;;;;;;;;;6347196;22;20022;-81
2023/06/07 12:51:22;;;;;;;5.75;2.50;;;;;;;;;;6380578;22;20026;-78
2023/06/07 12:53:50;;;;;;;5.57;2.95;;;;;;;;;;6374612;22;20309;-79
2023/06/07 12:56:19;;;;;;;5.00;2.85;;;;;;;;;;6377113;22;20021;-79
2023/06/07 12:58:47;;;;;;;4.82;2.60;;;;;;;;;;6350927;22;20021;-80
2023/06/07 13:01:15;;;;;;;6.35;2.97;;;;;;;;;;6348134;22;20014;-79
2023/06/07 13:03:44;;;;;;;7.68;3.97;;;;;;;;;;6348631;22;20015;-80
2023/06/07 13:06:12;;;;;;;5.47;3.03;;;;;;;;;;6351545;22;20018;-77
2023/06/07 13:08:43;;;;;;;6.15;2.85;;;;;;;;;;6353558;22;20014;-82
2023/06/07 13:11:11;;;;;;;4.93;2.70;;;;;;;;;;6325325;22;20018;-80
2023/06/07 13:13:38;;;;;;;5.88;3.30;;;;;;;;;;6377649;22;20086;-79
2023/06/07 13:16:07;;;;;;;4.90;2.85;;;;;;;;;;6357177;22;20022;-77
2023/06/07 13:18:38;;;;;;;7.00;3.35;;;;;;;;;;6350987;22;20010;-76
2023/06/07 13:21:07;;;;;;;6.90;2.67;;;;;;;;;;6383385;22;20021;-78
2023/06/07 13:23:35;;;;;;;6.10;3.10;;;;;;;;;;6355069;22;20082;-78
2023/06/07 13:26:03;;;;;;;5.82;2.78;;;;;;;;;;6379386;22;20014;-79
2023/06/07 13:28:31;;;;;;;6.80;3.22;;;;;;;;;;6379052;22;20021;-77
2023/06/07 13:30:59;;;;;;;3.40;2.58;;;;;;;;;;6377121;22;20041;-78
2023/06/07 13:33:26;;;;;;;4.10;2.70;;;;;;;;;;6375749;22;20093;-79
2023/06/07 13:35:54;;;;;;;7.28;2.95;;;;;;;;;;6380336;22;20040;-78
2023/06/07 13:38:21;;;;;;;6.18;3.10;;;;;;;;;;6347662;22;20543;-77
2023/06/07 13:40:49;;;;;;;4.60;2.88;;;;;;;;;;6377055;22;20018;-79
2023/06/07 13:43:17;;;;;;;5.85;2.75;;;;;;;;;;6351177;22;20014;-82
2023/06/07 13:45:46;;;;;;;6.22;3.17;;;;;;;;;;6381608;22;20336;-80
2023/06/07 13:48:16;;;;;;;4.85;2.80;;;;;;;;;;6328742;22;20014;-80
2023/06/07 13:50:44;;;;;;;7.55;2.90;;;;;;;;;;6379692;22;20025;-78
2023/06/07 13:53:12;;;;;;;5.30;3.63;;;;;;;;;;6377117;22;20018;-79
2023/06/07 13:55:40;;;;;;;4.07;2.30;;;;;;;;;;6351454;22;20078;-80
2023/06/07 13:58:08;;;;;;;5.45;2.90;;;;;;;;;;6375028;22;20021;-81
2023/06/07 14:00:36;;;;;;;4.30;2.47;;;;;;;;;;6377106;22;20018;-78
2023/06/07 14:03:03;;;;;;;6.32;2.45;;;;;;;;;;6324350;22;20018;-78
2023/06/07 14:05:31;;;;;;;4.13;2.60;;;;;;;;;;6377851;22;20018;-78
2023/06/07 14:08:00;;;;;;;3.97;2.40;;;;;;;;;;6350424;22;20018;-79
2023/06/07 14:10:31;;;;;;;4.25;2.70;;;;;;;;;;6347615;22;20105;-75
2023/06/07 14:12:59;;;;;;;5.15;2.75;;;;;;;;;;6371739;22;20014;-77
2023/06/07 14:15:27;;;;;;;5.72;2.60;;;;;;;;;;6318897;22;20422;-69
2023/06/07 14:17:55;;;;;;;8.02;2.70;;;;;;;;;;6371873;22;20010;-75
2023/06/07 14:20:23;;;;;;;6.25;2.33;;;;;;;;;;6372046;22;20313;-74
2023/06/07 14:22:50;;;;;;;4.20;2.72;;;;;;;;;;6344692;22;20023;-72
2023/06/07 14:25:19;;;;;;;4.90;2.80;;;;;;;;;;6345000;22;20045;-70
2023/06/07 14:27:47;;;;;;;7.15;2.70;;;;;;;;;;6345297;22;20484;-72
2023/06/07 14:30:15;;;;;;;8.00;3.17;;;;;;;;;;6370862;22;20014;-71
2023/06/07 14:32:43;;;;;;;6.00;3.47;;;;;;;;;;6370029;22;20379;-74
2023/06/07 14:35:11;;;;;;;5.85;2.78;;;;;;;;;;6368791;22;20033;-71
2023/06/07 14:37:39;;;;;;;7.15;2.88;;;;;;;;;;6341337;22;20053;-75
2023/06/07 14:40:08;;;;;;;5.32;2.63;;;;;;;;;;6315363;22;20021;-75
2023/06/07 14:42:36;;;;;;;4.68;3.20;;;;;;;;;;6370390;22;20020;-74
2023/06/07 14:45:05;;;;;;;5.63;3.55;;;;;;;;;;6369927;22;20089;-73
2023/06/07 14:47:33;;;;;;;9.57;3.95;;;;;;;;;;6342981;22;20045;-67
2023/06/07 14:50:01;;;;;;;5.30;3.00;;;;;;;;;;6373533;22;20064;-74
2023/06/07 14:52:29;;;;;;;6.82;3.70;;;;;;;;;;6347928;22;20014;-79
2023/06/07 14:54:57;;;;;;;5.15;3.30;;;;;;;;;;6374101;22;20014;-74